createdAt,value
2023-05-19T00:01:21.126Z,9.10
2023-05-19T00:03:57.845Z,9.00
2023-05-19T00:06:32.885Z,9.00
2023-05-19T00:09:08.168Z,8.90
2023-05-19T00:11:42.333Z,8.90
2023-05-19T00:14:17.895Z,8.90
2023-05-19T00:16:52.113Z,8.90
2023-05-19T00:19:32.270Z,8.90
2023-05-19T00:22:06.323Z,8.90
2023-05-19T00:24:39.901Z,8.80
2023-05-19T00:27:13.455Z,8.80
2023-05-19T00:29:48.746Z,8.80
2023-05-19T00:32:22.451Z,8.80
2023-05-19T00:34:56.042Z,8.90
2023-05-19T00:37:29.639Z,8.80
2023-05-19T00:40:05.665Z,8.80
2023-05-19T00:42:40.093Z,8.90
2023-05-19T00:45:15.217Z,8.90
2023-05-19T00:47:49.681Z,8.90
2023-05-19T00:50:24.236Z,8.90
2023-05-19T00:52:58.024Z,8.90
2023-05-19T00:55:34.728Z,8.90
2023-05-19T00:58:10.716Z,8.90
2023-05-19T01:00:45.857Z,8.90
2023-05-19T01:03:20.874Z,8.90
2023-05-19T01:05:54.861Z,9.00
2023-05-19T01:08:29.055Z,9.00
2023-05-19T01:11:02.809Z,8.90
2023-05-19T01:13:38.596Z,9.00
2023-05-19T01:16:23.755Z,9.00
2023-05-19T01:19:04.009Z,9.00
2023-05-19T01:21:57.941Z,9.00
2023-05-19T01:24:58.259Z,9.00
2023-05-19T01:28:00.861Z,9.00
2023-05-19T01:30:39.128Z,9.10
2023-05-19T01:33:15.320Z,9.10
2023-05-19T01:35:49.760Z,9.00
2023-05-19T01:38:26.168Z,9.10
2023-05-19T01:41:00.169Z,9.10
2023-05-19T01:43:34.942Z,9.10
2023-05-19T01:46:10.337Z,9.10
2023-05-19T01:48:45.833Z,9.10
2023-05-19T01:51:20.430Z,9.10
2023-05-19T01:53:54.063Z,9.10
2023-05-19T01:56:38.111Z,9.10
2023-05-19T01:59:24.436Z,9.10
2023-05-19T02:02:02.019Z,9.10
2023-05-19T02:04:41.310Z,9.10
2023-05-19T02:07:21.542Z,9.10
2023-05-19T02:10:04.150Z,9.10
2023-05-19T02:12:40.616Z,9.10
2023-05-19T02:15:18.123Z,9.10
2023-05-19T02:17:54.680Z,9.10
2023-05-19T02:20:29.489Z,9.00
2023-05-19T02:23:03.048Z,9.00
2023-05-19T02:25:36.663Z,9.00
2023-05-19T02:28:10.272Z,9.00
2023-05-19T02:30:43.984Z,9.00
2023-05-19T02:33:19.450Z,9.00
2023-05-19T02:35:53.023Z,9.00
2023-05-19T02:38:26.877Z,9.00
2023-05-19T02:41:00.801Z,9.00
2023-05-19T02:43:34.349Z,9.00
2023-05-19T02:46:08.009Z,9.00
2023-05-19T02:48:43.640Z,9.00
2023-05-19T02:51:17.226Z,9.00
2023-05-19T02:53:51.045Z,9.00
2023-05-19T02:56:24.662Z,9.00
2023-05-19T02:58:58.569Z,9.00
2023-05-19T03:01:32.750Z,9.10
2023-05-19T03:04:07.797Z,9.00
2023-05-19T03:06:42.285Z,9.00
2023-05-19T03:09:15.890Z,9.10
2023-05-19T03:11:49.464Z,9.10
2023-05-19T03:14:24.618Z,9.10
2023-05-19T03:16:59.930Z,9.10
2023-05-19T03:19:35.038Z,9.20
2023-05-19T03:22:08.725Z,9.20
2023-05-19T03:24:42.260Z,9.10
2023-05-19T03:27:16.629Z,9.10
2023-05-19T03:29:50.246Z,9.10
2023-05-19T03:32:23.917Z,9.10
2023-05-19T03:34:59.064Z,9.20
2023-05-19T03:37:33.617Z,9.10
2023-05-19T03:40:08.889Z,9.10
2023-05-19T03:42:44.371Z,9.10
2023-05-19T03:45:18.003Z,9.10
2023-05-19T03:47:54.670Z,9.10
2023-05-19T03:50:51.227Z,9.20
2023-05-19T03:53:30.381Z,9.20
2023-05-19T03:56:03.993Z,9.20
2023-05-19T03:58:40.850Z,9.20
2023-05-19T04:01:14.487Z,9.20
2023-05-19T04:03:48.052Z,9.20
2023-05-19T04:06:23.462Z,9.20
2023-05-19T04:08:57.040Z,9.20
2023-05-19T04:11:30.572Z,9.20
2023-05-19T04:14:04.777Z,9.20
2023-05-19T04:16:38.775Z,9.20
2023-05-19T04:19:12.466Z,9.20
2023-05-19T04:21:47.443Z,9.20
2023-05-19T04:24:21.223Z,9.30
2023-05-19T04:26:54.908Z,9.30
2023-05-19T04:29:29.600Z,9.30
2023-05-19T04:32:06.876Z,9.40
2023-05-19T04:34:45.369Z,9.40
2023-05-19T04:37:25.890Z,9.40
2023-05-19T04:39:59.626Z,9.40
2023-05-19T04:42:34.307Z,9.40
2023-05-19T04:45:12.407Z,9.40
2023-05-19T04:47:48.417Z,9.50
2023-05-19T04:50:23.388Z,9.50
2023-05-19T04:52:59.368Z,9.60
2023-05-19T04:55:34.261Z,9.60
2023-05-19T04:58:08.142Z,9.60
2023-05-19T05:00:41.803Z,9.60
2023-05-19T05:03:16.507Z,9.70
2023-05-19T05:05:50.244Z,9.70
2023-05-19T05:08:25.237Z,9.70
2023-05-19T05:11:00.785Z,9.70
2023-05-19T05:13:34.969Z,9.80
2023-05-19T05:16:09.828Z,9.80
2023-05-19T05:18:45.040Z,9.90
2023-05-19T05:21:19.662Z,9.90
2023-05-19T05:23:55.687Z,10.00
2023-05-19T05:26:35.688Z,10.00
2023-05-19T05:29:11.461Z,10.10
2023-05-19T05:31:45.162Z,10.10
2023-05-19T05:34:19.196Z,10.10
2023-05-19T05:36:52.856Z,10.20
2023-05-19T05:39:28.861Z,10.20
2023-05-19T05:42:02.501Z,10.20
2023-05-19T05:44:36.885Z,10.30
2023-05-19T05:47:13.061Z,10.30
2023-05-19T05:49:48.268Z,10.40
2023-05-19T05:52:23.637Z,10.50
2023-05-19T05:55:00.493Z,10.50
2023-05-19T05:57:36.684Z,10.60
2023-05-19T06:00:15.708Z,10.60
2023-05-19T06:02:51.646Z,10.70
2023-05-19T06:05:26.537Z,10.70
2023-05-19T06:08:04.635Z,10.70
2023-05-19T06:10:41.801Z,10.80
2023-05-19T06:13:22.310Z,10.80
2023-05-19T06:15:55.983Z,10.80
2023-05-19T06:18:34.288Z,10.90
2023-05-19T06:21:10.285Z,10.90
2023-05-19T06:23:44.670Z,11.00
2023-05-19T06:26:20.100Z,11.00
2023-05-19T06:28:53.707Z,11.10
2023-05-19T06:31:28.257Z,11.10
2023-05-19T06:34:05.151Z,11.10
2023-05-19T06:36:40.497Z,11.20
2023-05-19T06:39:14.807Z,11.20
2023-05-19T06:41:49.967Z,11.20
2023-05-19T06:44:43.634Z,11.30
2023-05-19T06:47:19.199Z,11.30
2023-05-19T06:49:55.527Z,11.40
2023-05-19T06:52:32.478Z,11.50
2023-05-19T06:55:08.963Z,11.50
2023-05-19T06:57:46.107Z,11.60
2023-05-19T07:00:22.924Z,11.60
2023-05-19T07:02:58.958Z,11.70
2023-05-19T07:05:32.595Z,11.70
2023-05-19T07:08:08.407Z,11.80
2023-05-19T07:10:42.891Z,11.90
2023-05-19T07:13:21.063Z,12.00
2023-05-19T07:15:55.993Z,12.10
2023-05-19T07:18:31.946Z,12.10
2023-05-19T07:21:07.340Z,12.10
2023-05-19T07:23:41.198Z,12.20
2023-05-19T07:26:14.782Z,12.20
2023-05-19T07:28:49.690Z,12.30
2023-05-19T07:31:23.354Z,12.40
2023-05-19T07:33:58.146Z,12.40
2023-05-19T07:36:31.849Z,12.50
2023-05-19T07:39:05.563Z,12.60
2023-05-19T07:41:39.209Z,12.60
2023-05-19T07:44:14.557Z,12.60
2023-05-19T07:46:48.148Z,12.70
2023-05-19T07:49:21.964Z,12.70
2023-05-19T07:51:55.650Z,12.80
2023-05-19T07:54:29.398Z,12.90
2023-05-19T07:57:02.984Z,13.00
2023-05-19T07:59:37.946Z,13.10
2023-05-19T08:02:11.532Z,13.10
2023-05-19T08:04:45.181Z,13.20
2023-05-19T08:07:18.831Z,13.20
2023-05-19T08:09:52.398Z,13.20
2023-05-19T08:12:26.050Z,13.20
2023-05-19T08:15:01.844Z,13.20
2023-05-19T08:17:35.890Z,13.20
2023-05-19T08:20:12.238Z,13.20
2023-05-19T08:22:45.914Z,13.40
2023-05-19T08:25:19.942Z,13.50
2023-05-19T08:27:53.600Z,13.60
2023-05-19T08:30:28.715Z,13.70
2023-05-19T08:33:02.512Z,13.80
2023-05-19T08:35:36.218Z,13.70
2023-05-19T08:38:09.947Z,13.80
2023-05-19T08:40:44.654Z,13.80
2023-05-19T08:43:18.400Z,14.00
2023-05-19T08:45:54.633Z,14.20
2023-05-19T08:48:31.300Z,14.30
2023-05-19T08:51:16.307Z,14.30
2023-05-19T08:53:52.986Z,14.40
2023-05-19T08:56:27.031Z,14.40
2023-05-19T08:59:01.131Z,14.50
2023-05-19T09:04:17.040Z,14.70
2023-05-19T09:06:51.607Z,14.70
2023-05-19T09:09:25.288Z,14.80
2023-05-19T09:11:59.624Z,14.80
2023-05-19T09:14:34.801Z,14.90
2023-05-19T09:17:09.966Z,15.10
2023-05-19T09:19:47.306Z,15.20
2023-05-19T09:22:21.322Z,15.20
2023-05-19T09:24:55.060Z,15.10
2023-05-19T09:27:28.665Z,15.20
2023-05-19T09:30:10.457Z,15.20
2023-05-19T09:32:45.673Z,15.40
2023-05-19T09:35:20.697Z,15.50
2023-05-19T09:37:54.454Z,15.60
2023-05-19T09:40:30.069Z,15.80
2023-05-19T09:43:09.466Z,15.90
2023-05-19T09:45:45.962Z,16.10
2023-05-19T09:48:21.082Z,16.20
2023-05-19T09:50:55.439Z,16.40
2023-05-19T09:53:32.623Z,16.60
2023-05-19T09:56:07.402Z,16.80
2023-05-19T09:58:43.886Z,17.00
2023-05-19T10:01:18.162Z,17.20
2023-05-19T10:03:54.778Z,17.40
2023-05-19T10:06:28.503Z,17.60
2023-05-19T10:09:02.962Z,17.80
2023-05-19T10:11:36.892Z,18.00
2023-05-19T10:14:11.121Z,18.20
2023-05-19T10:16:45.694Z,18.30
2023-05-19T10:19:22.940Z,18.30
2023-05-19T10:21:57.174Z,18.50
2023-05-19T10:24:30.834Z,18.60
2023-05-19T10:27:07.318Z,18.70
2023-05-19T10:29:45.768Z,18.70
2023-05-19T10:32:24.277Z,18.70
2023-05-19T10:35:34.420Z,18.90
2023-05-19T10:38:30.071Z,19.00
2023-05-19T10:41:11.672Z,19.10
2023-05-19T10:43:57.250Z,19.40
2023-05-19T10:46:31.853Z,19.70
2023-05-19T10:49:05.482Z,19.70
2023-05-19T10:51:40.617Z,19.70
2023-05-19T10:54:16.619Z,19.80
2023-05-19T10:56:50.657Z,20.00
2023-05-19T10:59:34.502Z,20.20
2023-05-19T11:02:09.796Z,20.60
2023-05-19T11:04:51.967Z,20.70
2023-05-19T11:07:28.150Z,21.00
2023-05-19T11:10:06.477Z,21.20
2023-05-19T11:12:44.769Z,21.40
2023-05-19T11:15:18.508Z,21.50
2023-05-19T11:17:52.312Z,21.70
2023-05-19T11:20:27.355Z,22.00
2023-05-19T11:23:09.154Z,22.30
2023-05-19T11:25:48.173Z,22.40
2023-05-19T11:28:26.188Z,22.50
2023-05-19T11:31:01.137Z,22.90
2023-05-19T11:33:34.987Z,22.90
2023-05-19T11:36:10.029Z,22.80
2023-05-19T11:38:46.660Z,23.00
2023-05-19T11:41:21.013Z,22.80
2023-05-19T11:43:54.945Z,22.80
2023-05-19T11:46:29.254Z,22.80
2023-05-19T11:49:03.415Z,22.80
2023-05-19T11:51:38.418Z,23.00
2023-05-19T11:54:14.366Z,23.10
2023-05-19T11:56:48.519Z,23.30
2023-05-19T11:59:32.759Z,23.50
2023-05-19T12:02:18.084Z,23.50
2023-05-19T12:04:52.209Z,23.10
2023-05-19T12:07:26.557Z,22.90
2023-05-19T12:10:01.782Z,22.90
2023-05-19T12:12:36.523Z,23.00
2023-05-19T12:15:11.705Z,22.90
2023-05-19T12:17:46.672Z,22.90
2023-05-19T12:20:21.017Z,22.90
2023-05-19T12:22:56.295Z,22.80
2023-05-19T12:25:32.619Z,23.00
2023-05-19T12:28:06.798Z,23.10
2023-05-19T12:30:41.512Z,23.20
2023-05-19T12:33:16.751Z,23.20
2023-05-19T12:35:50.972Z,23.10
2023-05-19T12:38:24.628Z,23.10
2023-05-19T12:41:01.493Z,23.00
2023-05-19T12:43:35.358Z,22.90
2023-05-19T12:46:12.700Z,23.00
2023-05-19T12:48:47.436Z,23.00
2023-05-19T12:51:21.347Z,23.20
2023-05-19T12:53:55.511Z,23.10
2023-05-19T12:56:30.587Z,22.90
2023-05-19T12:59:04.250Z,23.00
2023-05-19T13:01:38.199Z,23.00
2023-05-19T13:04:12.157Z,22.80
2023-05-19T13:06:47.477Z,22.80
2023-05-19T13:09:21.449Z,22.70
2023-05-19T13:11:56.451Z,22.20
2023-05-19T13:14:30.018Z,22.10
2023-05-19T13:17:03.622Z,22.00
2023-05-19T13:19:37.292Z,21.90
2023-05-19T13:22:12.114Z,21.80
2023-05-19T13:24:45.699Z,21.90
2023-05-19T13:27:20.737Z,21.60
2023-05-19T13:29:54.402Z,21.60
2023-05-19T13:32:28.030Z,21.50
2023-05-19T13:35:02.346Z,21.30
2023-05-19T13:37:36.075Z,21.30
2023-05-19T13:40:10.663Z,21.20
2023-05-19T13:42:45.875Z,21.20
2023-05-19T13:45:19.495Z,21.20
2023-05-19T13:47:53.327Z,21.30
2023-05-19T13:50:26.903Z,21.40
2023-05-19T13:53:00.552Z,21.50
2023-05-19T13:55:34.441Z,21.40
2023-05-19T13:58:11.093Z,21.30
2023-05-19T14:00:44.810Z,21.10
2023-05-19T14:03:19.883Z,21.00
2023-05-19T14:05:53.564Z,21.00
2023-05-19T14:08:27.279Z,21.00
2023-05-19T14:11:00.851Z,21.10
2023-05-19T14:13:38.363Z,21.00
2023-05-19T14:16:15.461Z,20.90
2023-05-19T14:19:07.172Z,20.80
2023-05-19T14:21:41.026Z,20.90
2023-05-19T14:24:14.594Z,20.70
2023-05-19T14:26:48.187Z,20.80
2023-05-19T14:29:23.444Z,20.70
2023-05-19T14:31:57.235Z,20.60
2023-05-19T14:34:30.961Z,20.30
2023-05-19T14:37:04.552Z,20.30
2023-05-19T14:39:38.128Z,20.20
2023-05-19T14:42:12.786Z,20.10
2023-05-19T14:44:47.780Z,19.80
2023-05-19T14:47:21.483Z,19.60
2023-05-19T14:49:55.177Z,19.30
2023-05-19T14:52:28.805Z,19.10
2023-05-19T14:55:02.388Z,18.90
2023-05-19T14:57:36.153Z,18.50
2023-05-19T15:00:12.205Z,18.30
2023-05-19T15:02:46.201Z,18.00
2023-05-19T15:05:20.011Z,17.90
2023-05-19T15:07:53.646Z,17.60
2023-05-19T15:10:27.463Z,17.40
2023-05-19T15:13:01.781Z,17.10
2023-05-19T15:15:36.775Z,17.00
2023-05-19T15:18:11.499Z,16.80
2023-05-19T15:20:46.519Z,16.70
2023-05-19T15:23:20.158Z,16.50
2023-05-19T15:25:54.193Z,16.30
2023-05-19T15:28:28.053Z,15.80
2023-05-19T15:31:03.114Z,15.70
2023-05-19T15:33:36.884Z,15.60
2023-05-19T15:36:16.277Z,15.70
2023-05-19T15:38:49.893Z,15.70
2023-05-19T15:41:23.518Z,15.80
2023-05-19T15:43:57.129Z,15.80
2023-05-19T15:46:32.164Z,15.80
2023-05-19T15:49:05.908Z,15.70
2023-05-19T15:51:39.484Z,15.70
2023-05-19T15:54:13.061Z,15.70
2023-05-19T15:56:46.602Z,15.50
2023-05-19T15:59:20.480Z,15.50
2023-05-19T16:01:55.595Z,15.40
2023-05-19T16:04:29.341Z,15.40
2023-05-19T16:07:03.050Z,15.30
2023-05-19T16:09:36.649Z,15.10
2023-05-19T16:12:10.241Z,14.80
2023-05-19T16:14:43.788Z,14.60
2023-05-19T16:17:19.013Z,14.50
2023-05-19T16:19:52.746Z,14.40
2023-05-19T16:22:26.295Z,14.30
2023-05-19T16:25:00.260Z,14.30
2023-05-19T16:27:33.961Z,14.10
2023-05-19T16:30:08.996Z,14.00
2023-05-19T16:32:44.247Z,14.00
2023-05-19T16:35:18.097Z,13.90
2023-05-19T16:37:51.723Z,13.90
2023-05-19T16:40:25.400Z,13.80
2023-05-19T16:42:59.024Z,13.70
2023-05-19T16:45:32.690Z,13.70
2023-05-19T16:48:08.112Z,13.60
2023-05-19T16:50:41.743Z,13.60
2023-05-19T16:53:15.628Z,13.60
2023-05-19T16:55:49.672Z,13.50
2023-05-19T16:58:23.229Z,13.50
2023-05-19T17:00:57.781Z,13.50
2023-05-19T17:03:32.874Z,13.40
2023-05-19T17:06:08.388Z,13.30
2023-05-19T17:08:41.935Z,13.20
2023-05-19T17:11:15.601Z,13.20
2023-05-19T17:13:49.175Z,13.20
2023-05-19T17:16:23.515Z,13.20
2023-05-19T17:18:58.519Z,13.20
2023-05-19T17:21:33.740Z,13.10
2023-05-19T17:24:08.019Z,13.00
2023-05-19T17:26:41.819Z,13.00
2023-05-19T17:29:15.437Z,12.90
2023-05-19T17:31:49.171Z,12.90
2023-05-19T17:34:24.445Z,12.80
2023-05-19T17:36:58.026Z,12.80
2023-05-19T17:39:31.550Z,12.80
2023-05-19T17:42:06.003Z,12.70
2023-05-19T17:44:39.536Z,12.80
2023-05-19T17:47:13.077Z,12.70
2023-05-19T17:49:48.365Z,12.70
2023-05-19T17:52:22.483Z,12.60
2023-05-19T17:54:56.529Z,12.60
2023-05-19T17:57:33.254Z,12.70
2023-05-19T18:00:08.454Z,12.70
2023-05-19T18:02:42.543Z,12.60
2023-05-19T18:05:18.939Z,12.60
2023-05-19T18:07:52.957Z,12.60
2023-05-19T18:10:28.567Z,12.60
2023-05-19T18:13:02.071Z,12.60
2023-05-19T18:15:36.151Z,12.50
2023-05-19T18:18:10.954Z,12.50
2023-05-19T18:20:46.164Z,12.40
2023-05-19T18:23:20.548Z,12.40
2023-05-19T18:25:54.829Z,12.40
2023-05-19T18:28:29.699Z,12.30
2023-05-19T18:31:04.927Z,12.30
2023-05-19T18:33:38.477Z,12.30
2023-05-19T18:36:13.614Z,12.30
2023-05-19T18:38:47.977Z,12.20
2023-05-19T18:41:21.531Z,12.20
2023-05-19T18:43:55.238Z,12.20
2023-05-19T18:46:30.026Z,12.20
2023-05-19T18:49:04.404Z,12.20
2023-05-19T18:51:39.343Z,12.20
2023-05-19T18:54:12.956Z,12.20
2023-05-19T18:56:46.568Z,12.20
2023-05-19T18:59:20.272Z,12.20
2023-05-19T19:01:55.018Z,12.20
2023-05-19T19:04:28.696Z,12.20
2023-05-19T19:07:03.704Z,12.10
2023-05-19T19:09:37.256Z,12.10
2023-05-19T19:12:11.234Z,12.10
2023-05-19T19:14:44.827Z,12.10
2023-05-19T19:17:18.486Z,12.10
2023-05-19T19:19:52.460Z,12.10
2023-05-19T19:22:27.547Z,12.00
2023-05-19T19:25:01.127Z,12.00
2023-05-19T19:27:35.787Z,12.00
2023-05-19T19:30:10.887Z,12.00
2023-05-19T19:32:44.560Z,12.00
2023-05-19T19:35:18.388Z,11.90
2023-05-19T19:37:53.985Z,11.90
2023-05-19T19:40:29.304Z,11.90
2023-05-19T19:43:02.990Z,11.90
2023-05-19T19:45:39.177Z,11.80
2023-05-19T19:48:22.629Z,11.80
2023-05-19T19:50:56.440Z,11.90
2023-05-19T19:53:31.511Z,11.90
2023-05-19T19:56:07.312Z,11.90
2023-05-19T19:58:40.977Z,11.90
2023-05-19T20:01:27.869Z,11.90
2023-05-19T20:04:01.894Z,11.90
2023-05-19T20:06:37.114Z,11.90
2023-05-19T20:09:12.421Z,11.80
2023-05-19T20:11:45.990Z,11.80
2023-05-19T20:14:19.611Z,11.70
2023-05-19T20:16:53.182Z,11.70
2023-05-19T20:19:26.836Z,11.70
2023-05-19T20:22:00.655Z,11.70
2023-05-19T20:24:35.643Z,11.60
2023-05-19T20:27:11.094Z,11.60
2023-05-19T20:29:47.250Z,11.60
2023-05-19T20:32:20.830Z,11.50
2023-05-19T20:34:54.481Z,11.50
2023-05-19T20:37:27.989Z,11.50
2023-05-19T20:40:03.033Z,11.50
2023-05-19T20:42:36.727Z,11.50
2023-05-19T20:45:10.727Z,11.50
2023-05-19T20:47:44.253Z,11.50
2023-05-19T20:50:17.951Z,11.50
2023-05-19T20:52:51.563Z,11.50
2023-05-19T20:55:26.491Z,11.50
2023-05-19T20:58:00.037Z,11.50
2023-05-19T21:00:47.339Z,11.60
2023-05-19T21:03:24.602Z,11.50
2023-05-19T21:06:00.926Z,11.50
2023-05-19T21:08:34.497Z,11.50
2023-05-19T21:11:09.466Z,11.40
2023-05-19T21:13:43.437Z,11.50
2023-05-19T21:16:17.017Z,11.40
2023-05-19T21:18:50.657Z,11.40
2023-05-19T21:21:24.432Z,11.40
2023-05-19T21:23:57.998Z,11.40
2023-05-19T21:26:32.928Z,11.40
2023-05-19T21:29:06.581Z,11.40
2023-05-19T21:31:40.147Z,11.30
2023-05-19T21:34:13.717Z,11.30
2023-05-19T21:36:48.188Z,11.30
2023-05-19T21:39:23.415Z,11.30
2023-05-19T21:41:58.331Z,11.30
2023-05-19T21:44:32.528Z,11.30
2023-05-19T21:47:06.615Z,11.30
2023-05-19T21:49:40.755Z,11.20
2023-05-19T21:52:14.272Z,11.30
2023-05-19T21:54:47.928Z,11.30
2023-05-19T21:57:22.837Z,11.30
2023-05-19T21:59:56.318Z,11.30
2023-05-19T22:02:29.858Z,11.30
2023-05-19T22:05:03.539Z,11.30
2023-05-19T22:07:37.074Z,11.20
2023-05-19T22:10:11.586Z,11.20
2023-05-19T22:12:46.551Z,11.20
2023-05-19T22:15:20.314Z,11.20
2023-05-19T22:17:53.860Z,11.20
2023-05-19T22:20:27.438Z,11.20
2023-05-19T22:23:01.353Z,11.10
2023-05-19T22:25:34.980Z,11.10
2023-05-19T22:28:09.876Z,11.10
2023-05-19T22:30:44.220Z,11.10
2023-05-19T22:33:17.880Z,11.10
2023-05-19T22:35:51.435Z,11.10
2023-05-19T22:38:25.183Z,11.10
2023-05-19T22:40:58.691Z,11.20
2023-05-19T22:43:33.796Z,11.20
2023-05-19T22:46:07.389Z,11.20
2023-05-19T22:48:40.909Z,11.20
2023-05-19T22:51:14.455Z,11.20
2023-05-19T22:53:48.954Z,11.20
2023-05-19T22:56:22.734Z,11.20
2023-05-19T22:58:57.634Z,11.30
2023-05-19T23:01:31.272Z,11.20
2023-05-19T23:04:05.018Z,11.20
2023-05-19T23:06:38.537Z,11.20
2023-05-19T23:09:12.048Z,11.20
2023-05-19T23:11:46.169Z,11.20
2023-05-19T23:14:21.885Z,11.20
2023-05-19T23:16:55.549Z,11.20
2023-05-19T23:19:31.885Z,11.20
2023-05-19T23:22:05.676Z,11.20
2023-05-19T23:24:39.226Z,11.20
2023-05-19T23:27:12.797Z,11.20
2023-05-19T23:29:50.547Z,11.10
2023-05-19T23:32:24.092Z,11.10
2023-05-19T23:34:57.708Z,11.20
2023-05-19T23:37:31.268Z,11.10
2023-05-19T23:40:05.325Z,11.10
2023-05-19T23:42:38.905Z,11.10
2023-05-19T23:45:13.945Z,11.10
2023-05-19T23:47:47.502Z,11.20
2023-05-19T23:50:21.040Z,11.20
2023-05-19T23:52:54.618Z,11.20
2023-05-19T23:55:28.165Z,11.10
2023-05-19T23:58:02.053Z,11.20
